sensor_id;sensor_type;location;lat;lon;timestamp;P1;durP1;ratioP1;P2;durP2;ratioP2
49183;SDS011;35021;49.214;12.270;2023-02-10T00:01:21;11.38;;;9.43;;
49183;SDS011;35021;49.214;12.270;2023-02-10T00:03:50;10.50;;;9.00;;
49183;SDS011;35021;49.214;12.270;2023-02-10T00:06:18;10.63;;;9.32;;
49183;SDS011;35021;49.214;12.270;2023-02-10T00:08:50;10.43;;;9.32;;
49183;SDS011;35021;49.214;12.270;2023-02-10T00:11:18;10.55;;;9.45;;
49183;SDS011;35021;49.214;12.270;2023-02-10T00:13:45;10.52;;;8.77;;
49183;SDS011;35021;49.214;12.270;2023-02-10T00:16:13;10.00;;;9.00;;
49183;SDS011;35021;49.214;12.270;2023-02-10T00:18:41;9.65;;;8.65;;
49183;SDS011;35021;49.214;12.270;2023-02-10T00:21:10;9.80;;;8.63;;
49183;SDS011;35021;49.214;12.270;2023-02-10T00:23:41;10.35;;;9.32;;
49183;SDS011;35021;49.214;12.270;2023-02-10T00:26:10;10.23;;;9.00;;
49183;SDS011;35021;49.214;12.270;2023-02-10T00:28:38;10.63;;;9.52;;
49183;SDS011;35021;49.214;12.270;2023-02-10T00:31:06;10.52;;;9.38;;
49183;SDS011;35021;49.214;12.270;2023-02-10T00:33:40;11.15;;;10.05;;
49183;SDS011;35021;49.214;12.270;2023-02-10T00:36:08;11.10;;;9.73;;
49183;SDS011;35021;49.214;12.270;2023-02-10T00:38:37;11.32;;;10.23;;
49183;SDS011;35021;49.214;12.270;2023-02-10T00:41:12;13.13;;;10.88;;
49183;SDS011;35021;49.214;12.270;2023-02-10T00:43:40;11.93;;;10.50;;
49183;SDS011;35021;49.214;12.270;2023-02-10T00:46:09;11.90;;;10.32;;
49183;SDS011;35021;49.214;12.270;2023-02-10T00:48:41;11.10;;;9.82;;
49183;SDS011;35021;49.214;12.270;2023-02-10T00:51:09;12.20;;;11.02;;
49183;SDS011;35021;49.214;12.270;2023-02-10T00:53:37;12.80;;;11.07;;
49183;SDS011;35021;49.214;12.270;2023-02-10T00:56:04;11.35;;;10.15;;
49183;SDS011;35021;49.214;12.270;2023-02-10T00:58:31;11.10;;;9.93;;
49183;SDS011;35021;49.214;12.270;2023-02-10T01:00:58;11.77;;;10.52;;
49183;SDS011;35021;49.214;12.270;2023-02-10T01:03:25;11.32;;;10.13;;
49183;SDS011;35021;49.214;12.270;2023-02-10T01:05:51;13.30;;;10.77;;
49183;SDS011;35021;49.214;12.270;2023-02-10T01:08:18;13.10;;;10.95;;
49183;SDS011;35021;49.214;12.270;2023-02-10T01:10:46;13.63;;;10.50;;
49183;SDS011;35021;49.214;12.270;2023-02-10T01:13:13;11.30;;;10.10;;
49183;SDS011;35021;49.214;12.270;2023-02-10T01:15:42;11.55;;;10.32;;
49183;SDS011;35021;49.214;12.270;2023-02-10T01:18:10;12.30;;;10.00;;
49183;SDS011;35021;49.214;12.270;2023-02-10T01:20:41;12.10;;;10.70;;
49183;SDS011;35021;49.214;12.270;2023-02-10T01:23:09;12.40;;;10.38;;
49183;SDS011;35021;49.214;12.270;2023-02-10T01:25:36;11.30;;;10.20;;
49183;SDS011;35021;49.214;12.270;2023-02-10T01:28:04;12.50;;;11.20;;
49183;SDS011;35021;49.214;12.270;2023-02-10T01:30:32;13.40;;;11.40;;
49183;SDS011;35021;49.214;12.270;2023-02-10T01:32:59;13.25;;;11.93;;
49183;SDS011;35021;49.214;12.270;2023-02-10T01:35:27;13.40;;;11.93;;
49183;SDS011;35021;49.214;12.270;2023-02-10T01:37:53;14.13;;;11.63;;
49183;SDS011;35021;49.214;12.270;2023-02-10T01:40:21;13.88;;;12.10;;
49183;SDS011;35021;49.214;12.270;2023-02-10T01:42:50;14.98;;;12.35;;
49183;SDS011;35021;49.214;12.270;2023-02-10T01:45:33;14.38;;;12.57;;
49183;SDS011;35021;49.214;12.270;2023-02-10T01:48:01;14.15;;;11.68;;
49183;SDS011;35021;49.214;12.270;2023-02-10T01:51:15;12.68;;;11.35;;
49183;SDS011;35021;49.214;12.270;2023-02-10T01:53:18;12.80;;;11.20;;
49183;SDS011;35021;49.214;12.270;2023-02-10T01:55:48;12.60;;;11.27;;
49183;SDS011;35021;49.214;12.270;2023-02-10T01:58:19;12.15;;;10.85;;
49183;SDS011;35021;49.214;12.270;2023-02-10T02:00:49;12.23;;;10.98;;
49183;SDS011;35021;49.214;12.270;2023-02-10T02:03:16;12.38;;;11.07;;
49183;SDS011;35021;49.214;12.270;2023-02-10T02:05:43;12.63;;;10.85;;
49183;SDS011;35021;49.214;12.270;2023-02-10T02:08:13;12.25;;;10.30;;
49183;SDS011;35021;49.214;12.270;2023-02-10T02:16:05;13.25;;;11.35;;
49183;SDS011;35021;49.214;12.270;2023-02-10T02:18:51;13.43;;;11.65;;
49183;SDS011;35021;49.214;12.270;2023-02-10T02:24:32;13.27;;;11.57;;
49183;SDS011;35021;49.214;12.270;2023-02-10T02:35:55;12.88;;;11.52;;
49183;SDS011;35021;49.214;12.270;2023-02-10T02:38:27;13.50;;;11.75;;
49183;SDS011;35021;49.214;12.270;2023-02-10T02:40:55;12.70;;;11.40;;
49183;SDS011;35021;49.214;12.270;2023-02-10T02:43:22;13.13;;;11.73;;
49183;SDS011;35021;49.214;12.270;2023-02-10T02:45:54;12.82;;;11.43;;
49183;SDS011;35021;49.214;12.270;2023-02-10T02:48:35;13.70;;;11.95;;
49183;SDS011;35021;49.214;12.270;2023-02-10T02:54:24;12.70;;;11.15;;
49183;SDS011;35021;49.214;12.270;2023-02-10T02:59:40;12.60;;;11.30;;
49183;SDS011;35021;49.214;12.270;2023-02-10T03:02:14;12.05;;;10.60;;
49183;SDS011;35021;49.214;12.270;2023-02-10T03:04:45;13.32;;;11.55;;
49183;SDS011;35021;49.214;12.270;2023-02-10T03:07:14;13.45;;;11.75;;
49183;SDS011;35021;49.214;12.270;2023-02-10T03:09:41;13.60;;;11.88;;
49183;SDS011;35021;49.214;12.270;2023-02-10T03:12:09;12.75;;;11.45;;
49183;SDS011;35021;49.214;12.270;2023-02-10T03:14:38;12.55;;;11.25;;
49183;SDS011;35021;49.214;12.270;2023-02-10T03:17:05;13.93;;;11.80;;
49183;SDS011;35021;49.214;12.270;2023-02-10T03:19:32;12.02;;;10.77;;
49183;SDS011;35021;49.214;12.270;2023-02-10T03:22:00;12.40;;;11.10;;
49183;SDS011;35021;49.214;12.270;2023-02-10T03:24:27;14.75;;;11.70;;
49183;SDS011;35021;49.214;12.270;2023-02-10T03:26:54;11.82;;;10.57;;
49183;SDS011;35021;49.214;12.270;2023-02-10T03:29:21;13.60;;;11.30;;
49183;SDS011;35021;49.214;12.270;2023-02-10T03:31:49;11.93;;;10.73;;
49183;SDS011;35021;49.214;12.270;2023-02-10T03:34:16;12.90;;;10.40;;
49183;SDS011;35021;49.214;12.270;2023-02-10T03:36:43;12.77;;;11.35;;
49183;SDS011;35021;49.214;12.270;2023-02-10T03:39:10;14.15;;;11.60;;
49183;SDS011;35021;49.214;12.270;2023-02-10T03:41:37;13.60;;;11.13;;
49183;SDS011;35021;49.214;12.270;2023-02-10T03:44:04;11.18;;;10.07;;
49183;SDS011;35021;49.214;12.270;2023-02-10T03:46:31;11.77;;;10.50;;
49183;SDS011;35021;49.214;12.270;2023-02-10T03:48:58;14.05;;;11.18;;
49183;SDS011;35021;49.214;12.270;2023-02-10T03:51:25;11.93;;;10.70;;
49183;SDS011;35021;49.214;12.270;2023-02-10T03:53:52;12.35;;;11.05;;
49183;SDS011;35021;49.214;12.270;2023-02-10T03:56:18;12.60;;;11.00;;
49183;SDS011;35021;49.214;12.270;2023-02-10T03:58:45;11.50;;;10.40;;
49183;SDS011;35021;49.214;12.270;2023-02-10T04:01:13;12.77;;;10.85;;
49183;SDS011;35021;49.214;12.270;2023-02-10T04:03:42;12.23;;;10.93;;
49183;SDS011;35021;49.214;12.270;2023-02-10T04:06:09;13.57;;;11.35;;
49183;SDS011;35021;49.214;12.270;2023-02-10T04:08:37;13.02;;;11.23;;
49183;SDS011;35021;49.214;12.270;2023-02-10T04:11:04;12.32;;;11.00;;
49183;SDS011;35021;49.214;12.270;2023-02-10T04:13:32;13.05;;;11.70;;
49183;SDS011;35021;49.214;12.270;2023-02-10T04:16:09;13.23;;;11.38;;
49183;SDS011;35021;49.214;12.270;2023-02-10T04:18:38;12.38;;;11.10;;
49183;SDS011;35021;49.214;12.270;2023-02-10T04:21:06;13.70;;;11.07;;
49183;SDS011;35021;49.214;12.270;2023-02-10T04:23:35;12.52;;;11.23;;
49183;SDS011;35021;49.214;12.270;2023-02-10T04:26:03;12.98;;;11.73;;
49183;SDS011;35021;49.214;12.270;2023-02-10T04:28:30;13.50;;;10.95;;
49183;SDS011;35021;49.214;12.270;2023-02-10T04:30:58;13.90;;;11.32;;
49183;SDS011;35021;49.214;12.270;2023-02-10T04:33:26;12.32;;;11.05;;
49183;SDS011;35021;49.214;12.270;2023-02-10T04:35:54;12.48;;;11.18;;
49183;SDS011;35021;49.214;12.270;2023-02-10T04:38:21;13.82;;;11.10;;
49183;SDS011;35021;49.214;12.270;2023-02-10T04:40:49;14.30;;;11.85;;
49183;SDS011;35021;49.214;12.270;2023-02-10T04:43:16;13.05;;;11.65;;
49183;SDS011;35021;49.214;12.270;2023-02-10T04:45:44;13.02;;;11.73;;
49183;SDS011;35021;49.214;12.270;2023-02-10T04:48:14;14.45;;;12.95;;
49183;SDS011;35021;49.214;12.270;2023-02-10T04:50:41;13.68;;;12.25;;
49183;SDS011;35021;49.214;12.270;2023-02-10T04:53:09;15.35;;;12.35;;
49183;SDS011;35021;49.214;12.270;2023-02-10T04:55:36;13.63;;;12.23;;
49183;SDS011;35021;49.214;12.270;2023-02-10T04:58:02;14.25;;;12.65;;
49183;SDS011;35021;49.214;12.270;2023-02-10T05:00:29;13.68;;;12.18;;
49183;SDS011;35021;49.214;12.270;2023-02-10T05:02:56;13.15;;;11.73;;
49183;SDS011;35021;49.214;12.270;2023-02-10T05:05:23;13.10;;;11.70;;
49183;SDS011;35021;49.214;12.270;2023-02-10T05:07:51;17.50;;;13.05;;
49183;SDS011;35021;49.214;12.270;2023-02-10T05:10:18;14.18;;;12.68;;
49183;SDS011;35021;49.214;12.270;2023-02-10T05:12:46;14.80;;;12.75;;
49183;SDS011;35021;49.214;12.270;2023-02-10T05:15:12;14.85;;;12.88;;
49183;SDS011;35021;49.214;12.270;2023-02-10T05:17:40;14.02;;;11.90;;
49183;SDS011;35021;49.214;12.270;2023-02-10T05:20:07;13.23;;;11.50;;
49183;SDS011;35021;49.214;12.270;2023-02-10T05:22:37;15.20;;;11.77;;
49183;SDS011;35021;49.214;12.270;2023-02-10T05:25:06;14.13;;;12.30;;
49183;SDS011;35021;49.214;12.270;2023-02-10T05:27:33;13.57;;;12.15;;
49183;SDS011;35021;49.214;12.270;2023-02-10T05:30:01;13.77;;;12.15;;
49183;SDS011;35021;49.214;12.270;2023-02-10T05:32:30;14.85;;;12.68;;
49183;SDS011;35021;49.214;12.270;2023-02-10T05:34:57;14.10;;;12.35;;
49183;SDS011;35021;49.214;12.270;2023-02-10T05:37:24;13.75;;;12.35;;
49183;SDS011;35021;49.214;12.270;2023-02-10T05:39:51;15.48;;;13.63;;
49183;SDS011;35021;49.214;12.270;2023-02-10T05:42:17;14.60;;;13.07;;
49183;SDS011;35021;49.214;12.270;2023-02-10T05:44:44;15.05;;;12.45;;
49183;SDS011;35021;49.214;12.270;2023-02-10T05:47:11;14.52;;;13.02;;
49183;SDS011;35021;49.214;12.270;2023-02-10T05:49:38;14.48;;;12.90;;
49183;SDS011;35021;49.214;12.270;2023-02-10T05:52:05;13.85;;;12.35;;
49183;SDS011;35021;49.214;12.270;2023-02-10T05:54:31;14.13;;;12.73;;
49183;SDS011;35021;49.214;12.270;2023-02-10T05:56:58;16.85;;;13.30;;
49183;SDS011;35021;49.214;12.270;2023-02-10T05:59:25;13.10;;;11.50;;
49183;SDS011;35021;49.214;12.270;2023-02-10T06:01:52;13.70;;;12.10;;
49183;SDS011;35021;49.214;12.270;2023-02-10T06:04:19;13.70;;;12.30;;
49183;SDS011;35021;49.214;12.270;2023-02-10T06:06:46;13.75;;;12.02;;
49183;SDS011;35021;49.214;12.270;2023-02-10T06:09:13;14.05;;;12.65;;
49183;SDS011;35021;49.214;12.270;2023-02-10T06:11:40;15.00;;;13.05;;
49183;SDS011;35021;49.214;12.270;2023-02-10T06:14:07;15.10;;;12.57;;
49183;SDS011;35021;49.214;12.270;2023-02-10T06:16:34;13.48;;;12.07;;
49183;SDS011;35021;49.214;12.270;2023-02-10T06:19:01;14.40;;;12.90;;
49183;SDS011;35021;49.214;12.270;2023-02-10T06:21:28;16.10;;;13.70;;
49183;SDS011;35021;49.214;12.270;2023-02-10T06:23:54;16.92;;;13.43;;
49183;SDS011;35021;49.214;12.270;2023-02-10T06:26:21;17.40;;;14.80;;
49183;SDS011;35021;49.214;12.270;2023-02-10T06:28:48;16.15;;;14.45;;
49183;SDS011;35021;49.214;12.270;2023-02-10T06:31:15;17.35;;;14.52;;
49183;SDS011;35021;49.214;12.270;2023-02-10T06:33:42;16.10;;;14.43;;
49183;SDS011;35021;49.214;12.270;2023-02-10T06:36:09;15.82;;;14.13;;
49183;SDS011;35021;49.214;12.270;2023-02-10T06:38:36;16.25;;;14.52;;
49183;SDS011;35021;49.214;12.270;2023-02-10T06:41:03;16.95;;;14.70;;
49183;SDS011;35021;49.214;12.270;2023-02-10T06:43:31;19.00;;;14.98;;
49183;SDS011;35021;49.214;12.270;2023-02-10T06:45:58;19.40;;;14.73;;
49183;SDS011;35021;49.214;12.270;2023-02-10T06:48:25;18.63;;;16.10;;
49183;SDS011;35021;49.214;12.270;2023-02-10T06:50:52;21.38;;;17.98;;
49183;SDS011;35021;49.214;12.270;2023-02-10T06:53:19;23.88;;;17.58;;
49183;SDS011;35021;49.214;12.270;2023-02-10T06:55:46;21.05;;;17.15;;
49183;SDS011;35021;49.214;12.270;2023-02-10T06:58:14;20.17;;;16.80;;
49183;SDS011;35021;49.214;12.270;2023-02-10T07:00:41;19.15;;;16.42;;
49183;SDS011;35021;49.214;12.270;2023-02-10T07:03:08;19.67;;;15.73;;
49183;SDS011;35021;49.214;12.270;2023-02-10T07:05:34;18.70;;;16.05;;
49183;SDS011;35021;49.214;12.270;2023-02-10T07:08:02;18.15;;;15.55;;
49183;SDS011;35021;49.214;12.270;2023-02-10T07:10:32;23.67;;;19.20;;
49183;SDS011;35021;49.214;12.270;2023-02-10T07:12:59;27.48;;;20.08;;
49183;SDS011;35021;49.214;12.270;2023-02-10T07:15:26;25.90;;;21.45;;
49183;SDS011;35021;49.214;12.270;2023-02-10T07:17:53;26.30;;;21.35;;
49183;SDS011;35021;49.214;12.270;2023-02-10T07:20:21;24.95;;;21.40;;
49183;SDS011;35021;49.214;12.270;2023-02-10T07:22:48;24.98;;;21.42;;
49183;SDS011;35021;49.214;12.270;2023-02-10T07:25:16;25.77;;;21.50;;
49183;SDS011;35021;49.214;12.270;2023-02-10T07:27:43;23.55;;;20.40;;
49183;SDS011;35021;49.214;12.270;2023-02-10T07:30:11;23.88;;;20.10;;
49183;SDS011;35021;49.214;12.270;2023-02-10T07:32:38;24.88;;;20.23;;
49183;SDS011;35021;49.214;12.270;2023-02-10T07:35:07;21.85;;;18.08;;
49183;SDS011;35021;49.214;12.270;2023-02-10T07:37:35;22.55;;;19.00;;
49183;SDS011;35021;49.214;12.270;2023-02-10T07:40:03;21.98;;;18.38;;
49183;SDS011;35021;49.214;12.270;2023-02-10T07:42:31;21.50;;;19.02;;
49183;SDS011;35021;49.214;12.270;2023-02-10T07:45:01;21.80;;;18.90;;
49183;SDS011;35021;49.214;12.270;2023-02-10T07:47:29;22.48;;;19.88;;
49183;SDS011;35021;49.214;12.270;2023-02-10T07:49:56;22.52;;;19.45;;
49183;SDS011;35021;49.214;12.270;2023-02-10T07:52:23;21.15;;;18.95;;
49183;SDS011;35021;49.214;12.270;2023-02-10T07:54:50;22.08;;;18.48;;
49183;SDS011;35021;49.214;12.270;2023-02-10T07:57:17;23.05;;;19.70;;
49183;SDS011;35021;49.214;12.270;2023-02-10T07:59:44;21.13;;;18.83;;
49183;SDS011;35021;49.214;12.270;2023-02-10T08:02:11;19.52;;;17.48;;
49183;SDS011;35021;49.214;12.270;2023-02-10T08:04:38;23.13;;;19.02;;
49183;SDS011;35021;49.214;12.270;2023-02-10T08:07:04;21.15;;;17.88;;
49183;SDS011;35021;49.214;12.270;2023-02-10T08:09:31;19.73;;;17.67;;
49183;SDS011;35021;49.214;12.270;2023-02-10T08:11:58;19.27;;;17.17;;
49183;SDS011;35021;49.214;12.270;2023-02-10T08:14:25;20.58;;;17.83;;
49183;SDS011;35021;49.214;12.270;2023-02-10T08:16:52;19.20;;;17.20;;
49183;SDS011;35021;49.214;12.270;2023-02-10T08:19:18;19.23;;;16.83;;
49183;SDS011;35021;49.214;12.270;2023-02-10T08:21:46;19.20;;;15.57;;
49183;SDS011;35021;49.214;12.270;2023-02-10T08:24:13;18.92;;;16.25;;
49183;SDS011;35021;49.214;12.270;2023-02-10T08:26:40;18.25;;;16.35;;
49183;SDS011;35021;49.214;12.270;2023-02-10T08:31:42;17.85;;;16.05;;
49183;SDS011;35021;49.214;12.270;2023-02-10T08:34:16;19.05;;;16.85;;
49183;SDS011;35021;49.214;12.270;2023-02-10T08:36:44;17.33;;;15.38;;
49183;SDS011;35021;49.214;12.270;2023-02-10T08:39:12;19.13;;;17.08;;
49183;SDS011;35021;49.214;12.270;2023-02-10T08:41:40;19.30;;;16.80;;
49183;SDS011;35021;49.214;12.270;2023-02-10T08:44:07;20.13;;;17.30;;
49183;SDS011;35021;49.214;12.270;2023-02-10T08:46:35;18.00;;;16.17;;
49183;SDS011;35021;49.214;12.270;2023-02-10T08:49:02;19.17;;;17.23;;
49183;SDS011;35021;49.214;12.270;2023-02-10T08:51:29;19.55;;;17.42;;
49183;SDS011;35021;49.214;12.270;2023-02-10T08:54:01;19.42;;;17.38;;
49183;SDS011;35021;49.214;12.270;2023-02-10T08:56:29;19.27;;;16.77;;
49183;SDS011;35021;49.214;12.270;2023-02-10T08:58:56;19.55;;;17.42;;
49183;SDS011;35021;49.214;12.270;2023-02-10T09:01:23;18.23;;;16.42;;
49183;SDS011;35021;49.214;12.270;2023-02-10T09:03:55;20.40;;;18.23;;
49183;SDS011;35021;49.214;12.270;2023-02-10T09:06:24;20.48;;;18.30;;
49183;SDS011;35021;49.214;12.270;2023-02-10T09:08:59;26.38;;;21.88;;
49183;SDS011;35021;49.214;12.270;2023-02-10T09:11:26;29.52;;;22.35;;
49183;SDS011;35021;49.214;12.270;2023-02-10T09:13:53;30.95;;;22.02;;
49183;SDS011;35021;49.214;12.270;2023-02-10T09:16:20;31.92;;;22.48;;
49183;SDS011;35021;49.214;12.270;2023-02-10T09:18:47;32.97;;;24.30;;
49183;SDS011;35021;49.214;12.270;2023-02-10T09:21:14;32.53;;;24.92;;
49183;SDS011;35021;49.214;12.270;2023-02-10T09:23:41;32.85;;;24.38;;
49183;SDS011;35021;49.214;12.270;2023-02-10T09:26:09;33.78;;;25.55;;
49183;SDS011;35021;49.214;12.270;2023-02-10T09:28:36;29.85;;;23.42;;
49183;SDS011;35021;49.214;12.270;2023-02-10T09:31:06;30.27;;;23.40;;
49183;SDS011;35021;49.214;12.270;2023-02-10T09:33:35;28.70;;;22.02;;
49183;SDS011;35021;49.214;12.270;2023-02-10T09:36:03;32.45;;;24.17;;
49183;SDS011;35021;49.214;12.270;2023-02-10T09:38:31;30.17;;;24.13;;
49183;SDS011;35021;49.214;12.270;2023-02-10T09:54:34;27.77;;;21.75;;
49183;SDS011;35021;49.214;12.270;2023-02-10T09:57:11;26.42;;;20.20;;
49183;SDS011;35021;49.214;12.270;2023-02-10T09:59:42;23.90;;;20.20;;
49183;SDS011;35021;49.214;12.270;2023-02-10T10:02:15;24.20;;;19.73;;
49183;SDS011;35021;49.214;12.270;2023-02-10T10:04:47;21.95;;;18.77;;
49183;SDS011;35021;49.214;12.270;2023-02-10T10:10:02;23.17;;;19.25;;
49183;SDS011;35021;49.214;12.270;2023-02-10T10:12:31;20.67;;;18.05;;
49183;SDS011;35021;49.214;12.270;2023-02-10T10:14:58;21.83;;;18.42;;
49183;SDS011;35021;49.214;12.270;2023-02-10T10:17:38;20.48;;;17.67;;
49183;SDS011;35021;49.214;12.270;2023-02-10T10:25:59;20.75;;;17.63;;
49183;SDS011;35021;49.214;12.270;2023-02-10T10:36:43;18.25;;;16.35;;
49183;SDS011;35021;49.214;12.270;2023-02-10T10:41:57;18.23;;;15.90;;
49183;SDS011;35021;49.214;12.270;2023-02-10T10:44:27;18.85;;;16.88;;
49183;SDS011;35021;49.214;12.270;2023-02-10T10:49:51;18.38;;;16.48;;
49183;SDS011;35021;49.214;12.270;2023-02-10T10:52:31;18.00;;;16.02;;
49183;SDS011;35021;49.214;12.270;2023-02-10T10:55:03;16.92;;;15.18;;
49183;SDS011;35021;49.214;12.270;2023-02-10T10:57:39;17.38;;;15.52;;
49183;SDS011;35021;49.214;12.270;2023-02-10T11:00:25;21.85;;;15.57;;
49183;SDS011;35021;49.214;12.270;2023-02-10T11:02:56;17.05;;;15.35;;
49183;SDS011;35021;49.214;12.270;2023-02-10T11:05:32;17.65;;;15.93;;
49183;SDS011;35021;49.214;12.270;2023-02-10T11:08:02;15.85;;;14.25;;
49183;SDS011;35021;49.214;12.270;2023-02-10T11:10:46;16.70;;;14.90;;
49183;SDS011;35021;49.214;12.270;2023-02-10T11:13:21;17.25;;;14.80;;
49183;SDS011;35021;49.214;12.270;2023-02-10T11:15:49;16.80;;;14.98;;
49183;SDS011;35021;49.214;12.270;2023-02-10T11:18:27;17.23;;;14.95;;
49183;SDS011;35021;49.214;12.270;2023-02-10T11:20:56;15.55;;;14.05;;
49183;SDS011;35021;49.214;12.270;2023-02-10T11:23:28;16.83;;;14.98;;
49183;SDS011;35021;49.214;12.270;2023-02-10T11:25:57;15.73;;;14.13;;
49183;SDS011;35021;49.214;12.270;2023-02-10T11:28:27;16.52;;;14.27;;
49183;SDS011;35021;49.214;12.270;2023-02-10T11:30:59;14.60;;;13.02;;
49183;SDS011;35021;49.214;12.270;2023-02-10T11:33:29;14.98;;;13.27;;
49183;SDS011;35021;49.214;12.270;2023-02-10T11:36:07;16.40;;;14.70;;
49183;SDS011;35021;49.214;12.270;2023-02-10T11:38:35;15.50;;;13.82;;
49183;SDS011;35021;49.214;12.270;2023-02-10T11:41:04;16.15;;;13.98;;
49183;SDS011;35021;49.214;12.270;2023-02-10T11:43:36;15.02;;;13.50;;
49183;SDS011;35021;49.214;12.270;2023-02-10T11:46:04;16.70;;;14.13;;
49183;SDS011;35021;49.214;12.270;2023-02-10T11:48:36;14.73;;;13.15;;
49183;SDS011;35021;49.214;12.270;2023-02-10T11:51:21;16.08;;;14.38;;
49183;SDS011;35021;49.214;12.270;2023-02-10T11:53:48;15.85;;;14.00;;
49183;SDS011;35021;49.214;12.270;2023-02-10T11:59:44;15.05;;;13.45;;
49183;SDS011;35021;49.214;12.270;2023-02-10T12:02:31;15.70;;;13.30;;
49183;SDS011;35021;49.214;12.270;2023-02-10T12:10:41;14.90;;;13.30;;
49183;SDS011;35021;49.214;12.270;2023-02-10T12:13:15;14.40;;;12.90;;
49183;SDS011;35021;49.214;12.270;2023-02-10T12:16:12;14.63;;;13.05;;
49183;SDS011;35021;49.214;12.270;2023-02-10T12:19:00;14.70;;;13.20;;
49183;SDS011;35021;49.214;12.270;2023-02-10T12:21:47;16.00;;;12.90;;
49183;SDS011;35021;49.214;12.270;2023-02-10T12:27:42;16.15;;;12.50;;
49183;SDS011;35021;49.214;12.270;2023-02-10T12:30:19;15.25;;;13.65;;
49183;SDS011;35021;49.214;12.270;2023-02-10T12:44:25;14.35;;;12.73;;
49183;SDS011;35021;49.214;12.270;2023-02-10T12:47:15;13.43;;;12.07;;
49183;SDS011;35021;49.214;12.270;2023-02-10T12:52:59;17.00;;;12.75;;
49183;SDS011;35021;49.214;12.270;2023-02-10T12:55:37;13.73;;;12.25;;
49183;SDS011;35021;49.214;12.270;2023-02-10T12:58:11;12.45;;;11.15;;
49183;SDS011;35021;49.214;12.270;2023-02-10T13:00:44;13.80;;;12.00;;
49183;SDS011;35021;49.214;12.270;2023-02-10T13:03:32;14.30;;;12.00;;
49183;SDS011;35021;49.214;12.270;2023-02-10T13:09:05;13.52;;;12.13;;
49183;SDS011;35021;49.214;12.270;2023-02-10T13:14:23;13.07;;;11.50;;
49183;SDS011;35021;49.214;12.270;2023-02-10T13:16:54;13.90;;;12.05;;
49183;SDS011;35021;49.214;12.270;2023-02-10T13:28:19;13.18;;;11.77;;
49183;SDS011;35021;49.214;12.270;2023-02-10T13:31:19;12.75;;;11.25;;
49183;SDS011;35021;49.214;12.270;2023-02-10T13:34:04;11.70;;;10.50;;
49183;SDS011;35021;49.214;12.270;2023-02-10T13:36:47;12.63;;;11.18;;
49183;SDS011;35021;49.214;12.270;2023-02-10T13:39:23;12.88;;;11.55;;
49183;SDS011;35021;49.214;12.270;2023-02-10T13:42:07;11.85;;;10.65;;
49183;SDS011;35021;49.214;12.270;2023-02-10T13:58:51;10.35;;;9.25;;
49183;SDS011;35021;49.214;12.270;2023-02-10T14:04:37;10.35;;;9.27;;
49183;SDS011;35021;49.214;12.270;2023-02-10T14:07:13;10.65;;;9.55;;
49183;SDS011;35021;49.214;12.270;2023-02-10T14:10:20;10.18;;;9.15;;
49183;SDS011;35021;49.214;12.270;2023-02-10T14:13:00;11.90;;;10.68;;
49183;SDS011;35021;49.214;12.270;2023-02-10T14:15:31;11.38;;;10.13;;
49183;SDS011;35021;49.214;12.270;2023-02-10T14:18:02;11.82;;;9.82;;
49183;SDS011;35021;49.214;12.270;2023-02-10T14:20:34;10.85;;;9.75;;
49183;SDS011;35021;49.214;12.270;2023-02-10T14:23:04;12.27;;;10.98;;
49183;SDS011;35021;49.214;12.270;2023-02-10T14:25:33;11.00;;;9.85;;
49183;SDS011;35021;49.214;12.270;2023-02-10T14:28:04;12.25;;;10.52;;
49183;SDS011;35021;49.214;12.270;2023-02-10T14:30:44;11.85;;;10.13;;
49183;SDS011;35021;49.214;12.270;2023-02-10T14:33:19;13.38;;;10.73;;
49183;SDS011;35021;49.214;12.270;2023-02-10T14:35:53;12.05;;;10.75;;
49183;SDS011;35021;49.214;12.270;2023-02-10T14:38:23;12.18;;;10.88;;
49183;SDS011;35021;49.214;12.270;2023-02-10T14:40:58;11.75;;;10.32;;
49183;SDS011;35021;49.214;12.270;2023-02-10T14:43:37;10.73;;;9.63;;
49183;SDS011;35021;49.214;12.270;2023-02-10T14:46:06;12.07;;;10.63;;
49183;SDS011;35021;49.214;12.270;2023-02-10T14:48:34;11.38;;;10.18;;
49183;SDS011;35021;49.214;12.270;2023-02-10T14:51:06;12.48;;;10.55;;
49183;SDS011;35021;49.214;12.270;2023-02-10T14:53:44;12.43;;;11.13;;
49183;SDS011;35021;49.214;12.270;2023-02-10T14:56:16;13.25;;;10.98;;
49183;SDS011;35021;49.214;12.270;2023-02-10T14:58:48;12.35;;;10.35;;
49183;SDS011;35021;49.214;12.270;2023-02-10T15:01:29;11.38;;;10.25;;
49183;SDS011;35021;49.214;12.270;2023-02-10T15:03:59;11.02;;;9.88;;
49183;SDS011;35021;49.214;12.270;2023-02-10T15:06:29;11.23;;;10.02;;
49183;SDS011;35021;49.214;12.270;2023-02-10T15:09:02;12.18;;;10.85;;
49183;SDS011;35021;49.214;12.270;2023-02-10T15:11:39;12.00;;;10.43;;
49183;SDS011;35021;49.214;12.270;2023-02-10T15:14:29;12.75;;;10.77;;
49183;SDS011;35021;49.214;12.270;2023-02-10T15:17:01;11.98;;;10.27;;
49183;SDS011;35021;49.214;12.270;2023-02-10T15:19:31;11.95;;;10.30;;
49183;SDS011;35021;49.214;12.270;2023-02-10T15:21:58;12.38;;;10.88;;
49183;SDS011;35021;49.214;12.270;2023-02-10T15:24:27;12.60;;;11.27;;
49183;SDS011;35021;49.214;12.270;2023-02-10T15:26:55;12.43;;;11.05;;
49183;SDS011;35021;49.214;12.270;2023-02-10T15:29:42;11.93;;;10.60;;
49183;SDS011;35021;49.214;12.270;2023-02-10T15:32:17;11.23;;;10.02;;
49183;SDS011;35021;49.214;12.270;2023-02-10T15:34:46;11.57;;;10.30;;
49183;SDS011;35021;49.214;12.270;2023-02-10T15:37:20;13.25;;;10.65;;
49183;SDS011;35021;49.214;12.270;2023-02-10T15:39:56;12.27;;;10.48;;
49183;SDS011;35021;49.214;12.270;2023-02-10T15:42:26;12.15;;;10.45;;
49183;SDS011;35021;49.214;12.270;2023-02-10T15:45:13;13.02;;;10.50;;
49183;SDS011;35021;49.214;12.270;2023-02-10T15:50:11;11.70;;;10.50;;
49183;SDS011;35021;49.214;12.270;2023-02-10T15:52:39;11.80;;;10.05;;
49183;SDS011;35021;49.214;12.270;2023-02-10T15:55:16;11.27;;;10.13;;
49183;SDS011;35021;49.214;12.270;2023-02-10T15:57:48;12.23;;;10.85;;
49183;SDS011;35021;49.214;12.270;2023-02-10T16:00:17;13.05;;;11.65;;
49183;SDS011;35021;49.214;12.270;2023-02-10T16:02:44;13.27;;;11.30;;
49183;SDS011;35021;49.214;12.270;2023-02-10T16:05:11;11.65;;;10.45;;
49183;SDS011;35021;49.214;12.270;2023-02-10T16:07:38;12.75;;;11.55;;
49183;SDS011;35021;49.214;12.270;2023-02-10T16:10:05;13.35;;;11.95;;
49183;SDS011;35021;49.214;12.270;2023-02-10T16:12:32;13.05;;;11.75;;
49183;SDS011;35021;49.214;12.270;2023-02-10T16:14:59;15.25;;;12.32;;
49183;SDS011;35021;49.214;12.270;2023-02-10T16:17:27;15.18;;;11.82;;
49183;SDS011;35021;49.214;12.270;2023-02-10T16:20:00;13.18;;;11.82;;
49183;SDS011;35021;49.214;12.270;2023-02-10T16:22:28;13.68;;;11.40;;
49183;SDS011;35021;49.214;12.270;2023-02-10T16:24:55;13.38;;;11.60;;
49183;SDS011;35021;49.214;12.270;2023-02-10T16:27:22;12.88;;;11.57;;
49183;SDS011;35021;49.214;12.270;2023-02-10T16:29:48;13.10;;;11.73;;
49183;SDS011;35021;49.214;12.270;2023-02-10T16:32:15;12.80;;;11.43;;